Time;durP1;ratioP1;P1;durP2;ratioP2;P2;SDS_P1;SDS_P2;PMS_P1;PMS_P2;Temp;Humidity;BMP_temperature;BMP_pressure;BME280_temperature;BME280_humidity;BME280_pressure;Samples;Min_cycle;Max_cycle;Signal;HPM_P1;HPM_P2
2021/12/12 00:01:35;;;;;;;80.70;36.00;;;;;;;-1.05;80.43;99198.02;105846;1316;22739;-77
2021/12/12 00:04:13;;;;;;;80.40;36.90;;;;;;;-1.05;80.38;99195.13;105839;1317;23996;-77
2021/12/12 00:06:49;;;;;;;80.50;37.20;;;;;;;-0.99;80.37;99199.68;105823;1317;22579;-78
2021/12/12 00:09:38;;;;;;;77.90;35.20;;;;;;;-0.95;80.73;99194.16;105768;1317;22639;-77
2021/12/12 00:12:13;;;;;;;79.10;36.70;;;;;;;-0.95;81.10;99195.70;105731;1319;22582;-77
2021/12/12 00:14:41;;;;;;;73.90;33.70;;;;;;;-0.96;80.98;99194.00;105725;1319;22643;-77
2021/12/12 00:17:09;;;;;;;77.60;35.30;;;;;;;-0.97;80.87;99199.47;105713;1318;25131;-77
2021/12/12 00:19:38;;;;;;;77.70;35.90;;;;;;;-0.96;80.61;99203.92;105686;1319;26084;-77
2021/12/12 00:22:09;;;;;;;75.30;33.50;;;;;;;-0.96;80.66;99207.34;105712;1318;22576;-78
2021/12/12 00:24:38;;;;;;;78.40;34.90;;;;;;;-0.93;80.51;99208.17;105707;1317;22605;-78
2021/12/12 00:27:06;;;;;;;79.90;36.30;;;;;;;-0.86;80.30;99206.55;105789;1315;22563;-78
2021/12/12 00:29:34;;;;;;;70.20;33.40;;;;;;;-0.82;80.43;99206.87;105867;1316;22596;-78
2021/12/12 00:32:07;;;;;;;67.70;32.40;;;;;;;-0.82;80.73;99210.29;105902;1316;22687;-78
2021/12/12 00:34:37;;;;;;;72.90;34.50;;;;;;;-0.84;80.82;99207.73;105909;1316;23468;-78
2021/12/12 00:37:08;;;;;;;66.50;32.30;;;;;;;-0.84;80.64;99210.81;105887;1317;25400;-78
2021/12/12 00:39:39;;;;;;;71.30;33.40;;;;;;;-0.83;80.63;99210.81;105848;1317;25804;-78
2021/12/12 00:42:10;;;;;;;68.20;31.00;;;;;;;-0.83;80.34;99214.91;105833;1316;22556;-78
2021/12/12 00:44:41;;;;;;;65.60;30.70;;;;;;;-0.84;80.20;99218.86;105869;1316;22646;-78
2021/12/12 00:47:09;;;;;;;68.50;32.50;;;;;;;-0.84;80.15;99225.34;105847;1316;22575;-78
2021/12/12 00:49:39;;;;;;;63.90;31.10;;;;;;;-0.78;80.12;99224.94;105894;1315;22584;-78
2021/12/12 00:52:08;;;;;;;67.00;30.50;;;;;;;-0.73;80.11;99226.11;105781;1316;23308;-78
2021/12/12 00:54:37;;;;;;;61.20;30.00;;;;;;;-0.73;80.48;99225.42;105605;1317;22779;-78
2021/12/12 00:57:07;;;;;;;65.40;30.60;;;;;;;-0.74;80.50;99227.48;105837;1316;22901;-78
2021/12/12 00:59:35;;;;;;;66.90;33.10;;;;;;;-0.75;80.45;99230.73;105866;1315;24218;-78
2021/12/12 01:02:07;;;;;;;75.20;35.20;;;;;;;-0.76;80.26;99231.43;105850;1316;22581;-78
2021/12/12 01:04:42;;;;;;;92.10;42.20;;;;;;;-0.77;80.12;99231.08;105823;1316;22647;-78
2021/12/12 01:07:14;;;;;;;90.40;41.30;;;;;;;-0.78;80.00;99233.48;105794;1316;25281;-78
2021/12/12 01:09:47;;;;;;;84.60;39.20;;;;;;;-0.79;79.82;99232.13;105776;1317;25629;-78
2021/12/12 01:12:21;;;;;;;86.70;39.50;;;;;;;-0.73;79.88;99235.85;105748;1319;22565;-78
2021/12/12 01:14:55;;;;;;;83.20;38.50;;;;;;;-0.70;80.03;99236.66;105763;1318;22649;-78
2021/12/12 01:17:38;;;;;;;77.60;37.30;;;;;;;-0.70;80.26;99236.32;105777;1318;23463;-78
2021/12/12 01:20:11;;;;;;;84.50;38.50;;;;;;;-0.73;80.31;99236.89;105779;1319;22582;-78
2021/12/12 01:22:39;;;;;;;131.40;47.70;;;;;;;-0.75;80.27;99236.38;105792;1318;22694;-78
2021/12/12 01:25:21;;;;;;;156.20;54.20;;;;;;;-0.76;80.18;99238.09;105947;1317;22576;-78
2021/12/12 01:27:50;;;;;;;112.20;45.20;;;;;;;-0.77;79.93;99244.27;105898;1316;22623;-78
2021/12/12 01:30:18;;;;;;;88.90;38.80;;;;;;;-0.79;79.93;99242.22;105783;1317;22578;-78
2021/12/12 01:32:47;;;;;;;106.60;41.40;;;;;;;-0.79;79.67;99246.84;105768;1320;22587;-78
2021/12/12 01:35:18;;;;;;;94.60;40.90;;;;;;;-0.78;79.84;99246.49;105761;1320;24912;-78
2021/12/12 01:40:42;;;;;;;79.60;38.90;;;;;;;-0.82;80.35;99249.29;105801;1318;22760;-78
2021/12/12 01:43:20;;;;;;;89.00;39.30;;;;;;;-0.84;80.29;99252.04;105769;1317;22707;-78
2021/12/12 01:45:53;;;;;;;87.40;40.00;;;;;;;-0.87;80.27;99251.37;105760;1319;22716;-78
2021/12/12 01:48:26;;;;;;;90.50;42.70;;;;;;;-0.90;80.08;99251.05;105757;1318;22563;-78
2021/12/12 01:50:58;;;;;;;98.30;41.70;;;;;;;-0.92;79.94;99253.98;105850;1317;22583;-78
2021/12/12 01:53:29;;;;;;;102.80;43.80;;;;;;;-0.86;79.92;99250.85;105841;1319;22573;-78
2021/12/12 01:56:04;;;;;;;98.10;42.90;;;;;;;-0.81;80.18;99246.36;105777;1318;22574;-78
2021/12/12 01:58:33;;;;;;;88.90;41.10;;;;;;;-0.80;80.43;99248.73;105775;1319;22864;-78
2021/12/12 02:01:09;;;;;;;90.30;41.60;;;;;;;-0.82;80.48;99249.80;105933;1316;22601;-78
2021/12/12 02:03:40;;;;;;;94.50;43.40;;;;;;;-0.82;80.44;99252.36;106145;1316;25271;-77
2021/12/12 02:06:11;;;;;;;95.30;43.00;;;;;;;-0.81;80.19;99252.86;106129;1315;22629;-78
2021/12/12 02:08:40;;;;;;;94.20;44.10;;;;;;;-0.82;80.12;99253.39;106146;1314;22752;-78
2021/12/12 02:11:13;;;;;;;106.40;46.30;;;;;;;-0.83;79.92;99250.65;106121;1315;22582;-78
2021/12/12 02:13:45;;;;;;;99.40;45.10;;;;;;;-0.84;79.86;99251.86;106155;1317;24317;-78
2021/12/12 02:16:13;;;;;;;92.30;44.10;;;;;;;-0.81;79.66;99252.35;106151;1316;25278;-78
2021/12/12 02:18:47;;;;;;;99.60;45.20;;;;;;;-0.79;79.97;99255.05;106133;1317;22585;-78
2021/12/12 02:21:26;;;;;;;95.50;44.00;;;;;;;-0.81;80.26;99262.08;105916;1311;22595;-78
2021/12/12 02:35:07;;;;;;;93.80;44.30;;;;;;;-0.85;80.43;99264.85;106149;1314;22612;-78
2021/12/12 02:35:44;;;;;;;92.60;43.00;;;;;;;-0.89;79.95;99279.95;106039;1320;22646;-78
2021/12/12 02:38:19;;;;;;;84.80;40.20;;;;;;;-0.88;80.19;99283.52;106034;1319;24063;-78
2021/12/12 02:40:52;;;;;;;97.00;41.50;;;;;;;-0.90;80.26;99283.20;106047;1318;22674;-78
2021/12/12 02:43:22;;;;;;;82.00;40.90;;;;;;;-0.90;80.25;99287.15;105873;1317;22599;-78
2021/12/12 02:45:54;;;;;;;93.90;42.80;;;;;;;-0.92;80.27;99289.05;106017;1320;22572;-78
2021/12/12 02:48:31;;;;;;;84.60;42.00;;;;;;;-0.92;80.20;99290.58;106050;1319;22574;-78
2021/12/12 02:51:03;;;;;;;95.90;42.60;;;;;;;-0.92;79.99;99291.61;106027;1318;24570;-78
2021/12/12 02:53:38;;;;;;;85.70;39.40;;;;;;;-0.87;79.86;99295.14;106026;1319;22573;-78
2021/12/12 02:56:09;;;;;;;78.50;35.70;;;;;;;-0.86;80.03;99298.04;106043;1319;22625;-78
2021/12/12 02:58:38;;;;;;;76.90;36.00;;;;;;;-0.86;80.38;99300.44;106025;1320;22587;-79
2021/12/12 03:01:10;;;;;;;78.90;36.30;;;;;;;-0.89;80.33;99300.64;105933;1317;22641;-78
2021/12/12 03:03:39;;;;;;;70.30;34.50;;;;;;;-0.91;80.20;99301.17;106157;1316;22593;-78
2021/12/12 03:06:11;;;;;;;76.70;36.20;;;;;;;-0.93;80.15;99306.14;106157;1317;24425;-79
2021/12/12 03:08:41;;;;;;;69.80;34.10;;;;;;;-0.92;80.08;99311.44;106123;1316;22662;-79
2021/12/12 03:11:09;;;;;;;73.80;35.40;;;;;;;-0.92;79.92;99312.98;106145;1316;22601;-79
2021/12/12 03:13:37;;;;;;;87.20;42.50;;;;;;;-0.93;79.89;99309.56;106098;1317;24243;-78
2021/12/12 03:16:07;;;;;;;80.00;40.20;;;;;;;-0.88;79.79;99308.32;105894;1316;22716;-76
2021/12/12 03:18:40;;;;;;;86.90;40.00;;;;;;;-0.87;79.80;99304.02;105674;1317;22564;-78
2021/12/12 03:21:35;;;;;;;75.10;37.20;;;;;;;-0.87;80.20;99303.52;105873;1316;24376;-78
2021/12/12 03:24:10;;;;;;;74.20;37.20;;;;;;;-0.89;80.44;99300.27;105826;1316;22735;-78
2021/12/12 03:26:37;;;;;;;74.10;36.20;;;;;;;-0.88;80.36;99295.48;105881;1314;22590;-78
2021/12/12 03:29:08;;;;;;;73.60;36.50;;;;;;;-0.85;80.24;99300.77;105891;1317;24012;-77
2021/12/12 03:31:44;;;;;;;67.00;35.20;;;;;;;-0.85;80.09;99298.72;105830;1317;22588;-77
2021/12/12 03:34:16;;;;;;;74.60;36.20;;;;;;;-0.86;79.81;99299.41;105811;1319;24135;-77
2021/12/12 03:36:44;;;;;;;71.20;36.80;;;;;;;-0.84;79.85;99301.45;105839;1317;25455;-77
2021/12/12 03:39:18;;;;;;;65.40;35.00;;;;;;;-0.82;80.06;99295.45;105828;1319;22648;-77
2021/12/12 03:41:47;;;;;;;69.90;35.80;;;;;;;-0.81;80.34;99294.59;105876;1318;22587;-77
2021/12/12 03:44:19;;;;;;;76.70;37.70;;;;;;;-0.80;80.44;99293.55;105862;1319;24206;-77
2021/12/12 03:46:51;;;;;;;72.90;36.40;;;;;;;-0.78;80.41;99293.86;105858;1319;22582;-77
2021/12/12 03:49:20;;;;;;;72.90;37.00;;;;;;;-0.78;80.18;99296.26;105836;1318;22602;-77
2021/12/12 03:51:49;;;;;;;75.10;37.70;;;;;;;-0.78;79.91;99295.39;105804;1318;22587;-78
2021/12/12 03:54:17;;;;;;;77.50;38.70;;;;;;;-0.82;79.72;99293.40;105821;1318;22611;-77
2021/12/12 03:56:46;;;;;;;81.60;38.20;;;;;;;-0.86;79.53;99292.05;105737;1316;22619;-77
2021/12/12 03:59:14;;;;;;;64.90;34.10;;;;;;;-0.87;79.59;99293.09;105710;1320;22653;-77
2021/12/12 04:01:48;;;;;;;70.00;34.10;;;;;;;-0.88;79.74;99299.59;105758;1319;24554;-78
2021/12/12 04:04:25;;;;;;;66.30;33.50;;;;;;;-0.89;80.14;99302.84;105808;1314;22716;-77
2021/12/12 04:06:54;;;;;;;71.50;35.70;;;;;;;-0.91;80.04;99310.07;105831;1311;24272;-76
2021/12/12 04:09:22;;;;;;;74.20;34.90;;;;;;;-0.92;80.08;99319.99;105887;1317;25305;-77
2021/12/12 04:11:53;;;;;;;67.50;35.50;;;;;;;-0.95;79.89;99323.59;105795;1317;22560;-77
2021/12/12 04:14:21;;;;;;;69.00;33.00;;;;;;;-0.98;79.72;99331.66;105799;1317;24918;-77
2021/12/12 04:16:53;;;;;;;68.20;34.50;;;;;;;-1.02;79.65;99332.89;105860;1317;22572;-78
2021/12/12 04:19:20;;;;;;;69.60;34.10;;;;;;;-1.07;79.47;99339.26;105870;1317;22606;-77
2021/12/12 04:21:49;;;;;;;71.90;33.10;;;;;;;-1.12;79.36;99343.22;105818;1315;22670;-78
2021/12/12 04:24:25;;;;;;;72.00;35.50;;;;;;;-1.11;79.34;99349.37;105805;1314;22695;-77
2021/12/12 04:26:53;;;;;;;65.80;32.80;;;;;;;-1.11;79.46;99348.17;105745;1317;22627;-77
2021/12/12 04:29:32;;;;;;;76.20;35.60;;;;;;;-1.14;79.91;99351.42;105838;1316;22576;-77
2021/12/12 04:32:06;;;;;;;72.00;35.00;;;;;;;-1.22;79.97;99353.20;105750;1317;22609;-78
2021/12/12 04:34:38;;;;;;;71.90;34.40;;;;;;;-1.28;79.79;99351.88;105750;1319;22597;-78
2021/12/12 04:37:06;;;;;;;71.10;34.40;;;;;;;-1.33;79.56;99353.25;105719;1319;22704;-78
2021/12/12 04:39:38;;;;;;;73.80;35.30;;;;;;;-1.36;79.50;99355.86;105725;1317;22643;-78
2021/12/12 04:42:15;;;;;;;70.10;33.60;;;;;;;-1.41;79.38;99365.27;105773;1317;22613;-78
2021/12/12 04:44:46;;;;;;;77.00;34.90;;;;;;;-1.48;79.26;99371.64;105740;1318;22575;-78
2021/12/12 04:50:33;;;;;;;83.70;38.20;;;;;;;-1.50;79.10;99379.50;105758;1319;22566;-78
2021/12/12 04:53:07;;;;;;;77.70;37.10;;;;;;;-1.51;79.38;99383.26;105708;1319;23530;-77
2021/12/12 04:55:58;;;;;;;80.70;37.10;;;;;;;-1.54;79.61;99386.35;105703;1318;24009;-78
2021/12/12 04:59:07;;;;;;;78.90;39.30;;;;;;;-1.60;79.69;99394.91;105706;1318;22642;-77
2021/12/12 05:01:56;;;;;;;82.80;38.20;;;;;;;-1.65;79.61;99402.30;105758;1317;22639;-78
2021/12/12 05:04:46;;;;;;;82.20;39.30;;;;;;;-1.69;79.51;99406.90;105105;1325;22942;-78
2021/12/12 05:07:19;;;;;;;79.20;37.50;;;;;;;-1.74;79.45;99404.37;105104;1325;22599;-77
2021/12/12 05:09:51;;;;;;;85.20;38.40;;;;;;;-1.76;79.30;99409.84;105127;1325;22595;-77
2021/12/12 05:12:30;;;;;;;79.80;38.60;;;;;;;-1.73;79.28;99412.23;105140;1325;22723;-78
2021/12/12 05:15:01;;;;;;;78.50;37.30;;;;;;;-1.71;79.56;99413.77;105098;1325;22585;-78
2021/12/12 05:18:10;;;;;;;80.20;37.80;;;;;;;-1.74;79.85;99415.98;105086;1322;22662;-77
2021/12/12 05:20:43;;;;;;;81.20;38.50;;;;;;;-1.75;79.98;99422.64;105128;1325;24223;-77
2021/12/12 05:23:16;;;;;;;77.60;37.10;;;;;;;-1.79;79.84;99420.27;105117;1325;23418;-77
2021/12/12 05:25:56;;;;;;;82.90;37.50;;;;;;;-1.81;79.77;99418.23;105085;1323;25748;-77
2021/12/12 05:28:29;;;;;;;78.60;37.00;;;;;;;-1.82;79.65;99417.71;105122;1325;24306;-77
2021/12/12 05:30:57;;;;;;;;;;;;;;;-1.84;79.47;99417.38;105132;1325;22643;-77
2021/12/12 05:33:25;;;;;;;75.20;38.10;;;;;;;-1.81;79.46;99421.14;105163;1324;22579;-77
2021/12/12 05:35:53;;;;;;;78.20;37.30;;;;;;;-1.78;79.53;99422.48;105162;1324;22910;-77
2021/12/12 05:38:23;;;;;;;71.20;35.50;;;;;;;-1.77;79.90;99426.05;105193;1324;22583;-77
2021/12/12 05:40:51;;;;;;;80.00;36.70;;;;;;;-1.78;79.96;99424.86;105154;1326;22585;-77
2021/12/12 05:43:19;;;;;;;81.60;37.70;;;;;;;-1.81;79.95;99425.06;105896;1316;22599;-77
2021/12/12 05:45:48;;;;;;;80.90;37.10;;;;;;;-1.83;79.79;99424.55;105928;1316;22585;-77
2021/12/12 05:48:15;;;;;;;73.40;35.50;;;;;;;-1.89;79.49;99423.71;105903;1316;24457;-77
2021/12/12 05:50:44;;;;;;;77.50;37.00;;;;;;;-1.95;79.59;99427.65;105861;1316;25258;-78
2021/12/12 05:53:14;;;;;;;75.80;36.10;;;;;;;-1.97;79.43;99430.56;105869;1316;22600;-77
2021/12/12 05:55:43;;;;;;;75.20;37.10;;;;;;;-1.93;79.58;99425.93;105848;1316;22611;-77
2021/12/12 05:58:13;;;;;;;71.10;32.90;;;;;;;-1.95;79.65;99423.20;105715;1317;22860;-79
2021/12/12 06:00:45;;;;;;;66.20;32.40;;;;;;;-2.00;80.08;99424.08;105902;1315;25357;-78
2021/12/12 06:03:15;;;;;;;73.80;34.30;;;;;;;-2.06;80.09;99427.85;105831;1317;24631;-77
2021/12/12 06:05:43;;;;;;;79.40;36.20;;;;;;;-2.13;79.97;99429.56;105810;1317;22574;-79
2021/12/12 06:08:11;;;;;;;80.30;35.00;;;;;;;-2.20;79.86;99422.23;105839;1317;22582;-77
2021/12/12 06:10:40;;;;;;;80.90;34.40;;;;;;;-2.25;79.76;99424.98;105735;1317;22640;-77
2021/12/12 06:13:13;;;;;;;90.30;39.50;;;;;;;-2.29;79.54;99427.20;105675;1319;22639;-78
2021/12/12 06:15:42;;;;;;;92.80;40.80;;;;;;;-2.26;79.44;99427.55;105681;1317;22546;-77
2021/12/12 06:18:11;;;;;;;90.40;37.50;;;;;;;-2.26;79.59;99430.61;105584;1319;22593;-77
2021/12/12 06:20:40;;;;;;;94.00;38.70;;;;;;;-2.29;80.11;99429.42;105755;1319;22711;-77
2021/12/12 06:23:09;;;;;;;96.50;39.30;;;;;;;-2.34;79.99;99426.70;105763;1319;22692;-76
2021/12/12 06:25:38;;;;;;;92.10;37.90;;;;;;;-2.40;79.97;99426.52;105830;1316;23935;-77
2021/12/12 06:28:10;;;;;;;84.80;37.50;;;;;;;-2.44;79.79;99422.96;105885;1317;22560;-77
2021/12/12 06:30:37;;;;;;;82.10;35.90;;;;;;;-2.47;79.59;99420.39;105812;1317;22579;-77
2021/12/12 06:33:05;;;;;;;77.20;34.50;;;;;;;-2.51;79.48;99416.13;105736;1317;24212;-77
2021/12/12 06:35:33;;;;;;;75.50;35.40;;;;;;;-2.57;79.27;99415.43;105679;1320;22599;-77
2021/12/12 06:38:06;;;;;;;81.30;37.90;;;;;;;-2.60;79.22;99419.21;105997;1318;22574;-77
2021/12/12 06:40:34;;;;;;;80.50;37.20;;;;;;;-2.57;79.30;99417.65;105680;1318;22608;-78
2021/12/12 06:43:04;;;;;;;73.90;36.90;;;;;;;-2.56;79.47;99418.69;105823;1318;23456;-78
2021/12/12 06:45:32;;;;;;;70.50;34.00;;;;;;;-2.57;79.67;99428.23;105831;1318;25543;-77
2021/12/12 06:48:02;;;;;;;73.10;34.30;;;;;;;-2.63;79.91;99425.34;105829;1318;22586;-77
2021/12/12 06:50:30;;;;;;;69.20;33.90;;;;;;;-2.67;79.92;99430.11;105740;1319;22582;-77
2021/12/12 06:52:58;;;;;;;68.00;34.50;;;;;;;-2.73;79.54;99437.61;105778;1320;22609;-77
2021/12/12 06:55:25;;;;;;;76.90;34.90;;;;;;;-2.82;79.36;99441.69;105791;1317;22728;-77
2021/12/12 06:57:53;;;;;;;76.50;35.10;;;;;;;-2.92;79.22;99439.12;105827;1319;22598;-77
2021/12/12 07:00:23;;;;;;;83.80;36.00;;;;;;;-2.99;79.26;99451.04;105835;1319;24466;-77
2021/12/12 07:02:51;;;;;;;88.80;38.20;;;;;;;-3.05;79.20;99451.20;105855;1317;22642;-77
2021/12/12 07:05:22;;;;;;;88.00;39.20;;;;;;;-3.07;79.15;99447.61;105720;1315;216263;-77
2021/12/12 07:07:51;;;;;;;86.80;39.00;;;;;;;-3.07;79.05;99449.33;105898;1316;24107;-77
2021/12/12 07:10:22;;;;;;;78.50;36.70;;;;;;;-3.09;79.28;99455.45;105897;1316;22761;-77
2021/12/12 07:12:55;;;;;;;75.30;35.30;;;;;;;-3.13;79.41;99449.81;105913;1316;22634;-77
2021/12/12 07:15:29;;;;;;;74.30;37.30;;;;;;;-3.18;79.73;99458.31;106086;1316;25313;-77
2021/12/12 07:17:58;;;;;;;81.30;39.00;;;;;;;-3.28;79.45;99465.77;106187;1314;22627;-79
2021/12/12 07:20:26;;;;;;;86.00;41.10;;;;;;;-3.36;79.24;99473.08;106154;1316;22597;-78
2021/12/12 07:22:54;;;;;;;94.80;42.70;;;;;;;-3.44;79.02;99465.55;106028;1316;22574;-77
2021/12/12 07:25:22;;;;;;;92.10;41.80;;;;;;;-3.49;79.11;99467.41;105894;1314;22591;-77
2021/12/12 07:27:53;;;;;;;93.90;46.60;;;;;;;-3.51;79.05;99459.58;105841;1316;22630;-77
2021/12/12 07:30:20;;;;;;;104.30;51.80;;;;;;;-3.50;78.98;99465.71;105901;1316;22613;-78
2021/12/12 07:32:48;;;;;;;103.00;50.70;;;;;;;-3.47;78.81;99455.98;105919;1316;23975;-77
2021/12/12 07:35:16;;;;;;;105.10;51.50;;;;;;;-3.44;78.99;99456.02;105854;1316;22631;-78
2021/12/12 07:37:45;;;;;;;83.20;41.40;;;;;;;-3.41;79.45;99467.78;105891;1315;24156;-78
2021/12/12 07:40:12;;;;;;;97.40;47.10;;;;;;;-3.39;79.75;99462.67;105935;1316;25280;-78
2021/12/12 07:42:41;;;;;;;93.00;45.40;;;;;;;-3.39;79.74;99475.27;105836;1317;26073;-77
2021/12/12 07:45:09;;;;;;;96.20;46.40;;;;;;;-3.37;79.46;99476.14;105890;1316;22578;-77
2021/12/12 07:47:36;;;;;;;98.10;44.90;;;;;;;-3.35;79.55;99483.13;105907;1316;22699;-77
2021/12/12 07:50:09;;;;;;;103.30;46.80;;;;;;;-3.32;79.43;99478.04;105902;1316;22646;-77
2021/12/12 07:52:37;;;;;;;109.30;54.40;;;;;;;-3.29;79.24;99485.02;105897;1316;22692;-77
2021/12/12 07:55:06;;;;;;;109.00;53.40;;;;;;;-3.22;79.36;99483.35;105914;1316;22661;-78
2021/12/12 07:57:34;;;;;;;97.90;47.50;;;;;;;-3.15;79.49;99489.34;105841;1311;22593;-78
2021/12/12 08:00:03;;;;;;;104.10;48.40;;;;;;;-3.12;79.78;99483.38;105845;1316;22720;-78
2021/12/12 08:02:31;;;;;;;110.40;52.40;;;;;;;-3.08;80.08;99486.80;105893;1317;22636;-78
2021/12/12 08:04:58;;;;;;;117.70;54.60;;;;;;;-3.03;79.87;99496.19;105877;1316;24358;-77
2021/12/12 08:07:27;;;;;;;118.80;57.00;;;;;;;-2.97;79.75;99493.48;105862;1314;22583;-78
2021/12/12 08:09:54;;;;;;;120.60;54.10;;;;;;;-2.92;79.53;99498.95;106249;1317;25360;-77
2021/12/12 08:12:29;;;;;;;128.40;57.50;;;;;;;-2.87;79.31;99500.83;105846;1314;22675;-76
2021/12/12 08:14:56;;;;;;;121.20;58.30;;;;;;;-2.78;79.60;99509.55;105780;1316;23019;-78
2021/12/12 08:17:25;;;;;;;115.40;58.30;;;;;;;-2.71;80.16;99509.23;105871;1316;22586;-78
2021/12/12 08:19:56;;;;;;;142.90;72.40;;;;;;;-2.68;80.48;99516.39;105815;1316;22684;-78
2021/12/12 08:22:25;;;;;;;119.50;59.80;;;;;;;-2.70;80.66;99511.11;105794;1316;22606;-76
2021/12/12 08:24:53;;;;;;;118.00;57.00;;;;;;;-2.69;80.51;99504.63;105810;1316;22615;-78
2021/12/12 08:27:20;;;;;;;128.20;55.80;;;;;;;-2.64;80.34;99502.92;105805;1316;22589;-77
2021/12/12 08:29:47;;;;;;;116.20;49.20;;;;;;;-2.57;80.06;99505.66;105824;1316;22578;-77
2021/12/12 08:32:14;;;;;;;93.80;43.20;;;;;;;-2.47;80.07;99503.29;105856;1316;22720;-78
2021/12/12 08:34:42;;;;;;;95.10;40.80;;;;;;;-2.40;80.56;99503.63;105887;1315;24182;-79
2021/12/12 08:37:09;;;;;;;84.60;35.70;;;;;;;-2.37;80.91;99496.14;105844;1316;25975;-78
2021/12/12 08:39:36;;;;;;;87.40;39.20;;;;;;;-2.33;81.03;99500.23;105769;1317;22567;-76
2021/12/12 08:42:06;;;;;;;86.40;35.80;;;;;;;-2.29;80.85;99500.05;106137;1316;22583;-78
2021/12/12 08:44:36;;;;;;;95.70;41.10;;;;;;;-2.27;80.58;99498.70;106175;1316;22531;-78
2021/12/12 08:47:06;;;;;;;88.00;38.80;;;;;;;-2.26;80.37;99500.06;106138;1315;22575;-78
2021/12/12 08:49:36;;;;;;;91.90;38.00;;;;;;;-2.20;80.39;99507.90;106176;1316;22578;-77
2021/12/12 08:52:11;;;;;;;78.10;34.80;;;;;;;-2.17;80.53;99506.73;106183;1316;22721;-77
2021/12/12 08:54:40;;;;;;;74.00;33.70;;;;;;;-2.13;81.11;99508.41;106196;1316;22552;-77
2021/12/12 08:57:20;;;;;;;66.40;30.80;;;;;;;-2.17;80.95;99513.04;106180;1316;22600;-78
2021/12/12 08:59:48;;;;;;;70.90;32.10;;;;;;;-2.23;80.75;99510.63;106177;1316;25549;-78
2021/12/12 09:02:18;;;;;;;74.40;31.10;;;;;;;-2.26;80.42;99499.89;106163;1315;24709;-77
2021/12/12 09:05:09;;;;;;;71.10;31.90;;;;;;;-2.31;80.20;99502.44;106164;1315;22639;-77
2021/12/12 09:07:44;;;;;;;84.30;34.60;;;;;;;-2.35;79.95;99507.56;106181;1316;22579;-78
2021/12/12 09:10:26;;;;;;;76.70;33.90;;;;;;;-2.35;80.06;99513.20;106056;1316;22570;-80
2021/12/12 09:13:01;;;;;;;76.50;33.20;;;;;;;-2.38;80.55;99511.98;105885;1319;22655;-80
2021/12/12 09:15:58;;;;;;;74.10;32.80;;;;;;;-2.42;80.74;99511.48;106063;1318;22585;-79
2021/12/12 09:18:34;;;;;;;80.40;34.30;;;;;;;-2.46;80.60;99510.63;105346;1326;22606;-78
2021/12/12 09:21:13;;;;;;;84.40;36.20;;;;;;;-2.51;80.48;99510.95;105335;1326;24225;-78
2021/12/12 09:23:50;;;;;;;86.00;36.10;;;;;;;-2.57;80.07;99517.26;105300;1325;22645;-78
2021/12/12 09:26:23;;;;;;;74.50;32.30;;;;;;;-2.62;79.99;99513.69;105346;1325;22587;-78
2021/12/12 09:29:29;;;;;;;75.80;33.90;;;;;;;-2.60;80.00;99514.89;105349;1325;25531;-78
2021/12/12 09:32:05;;;;;;;53.90;23.70;;;;;;;-2.61;80.32;99512.32;105363;1325;22620;-79
2021/12/12 09:34:55;;;;;;;54.30;24.60;;;;;;;-2.65;80.72;99509.91;105424;1325;22801;-79
2021/12/12 09:37:34;;;;;;;58.60;26.90;;;;;;;-2.73;80.46;99510.25;105397;1324;22862;-78
2021/12/12 09:40:10;;;;;;;56.70;25.10;;;;;;;-2.79;80.27;99509.21;105437;1324;22893;-78
2021/12/12 09:42:58;;;;;;;63.10;27.80;;;;;;;-2.81;80.30;99504.94;105388;1325;22664;-79
2021/12/12 09:45:37;;;;;;;75.90;30.90;;;;;;;-2.79;80.17;99503.59;105402;1324;24011;-79
2021/12/12 09:52:00;;;;;;;64.60;29.00;;;;;;;-2.67;80.66;99505.30;105401;1325;22547;-79
2021/12/12 09:54:36;;;;;;;79.40;32.00;;;;;;;-2.71;80.81;99509.41;105427;1324;25181;-80
2021/12/12 09:57:26;;;;;;;99.90;40.50;;;;;;;-2.73;80.56;99507.34;106192;1316;22636;-79
2021/12/12 10:00:50;;;;;;;94.40;37.60;;;;;;;-2.74;80.38;99502.05;106083;1315;22655;-79
2021/12/12 10:03:45;;;;;;;92.40;37.90;;;;;;;-2.78;80.13;99505.46;105406;1325;22615;-78
2021/12/12 10:06:38;;;;;;;102.20;41.00;;;;;;;-2.78;79.89;99502.91;105395;1322;22581;-79
2021/12/12 10:09:10;;;;;;;98.70;38.40;;;;;;;-2.72;79.97;99503.94;105351;1325;22666;-78
2021/12/12 10:12:16;;;;;;;89.30;36.40;;;;;;;-2.72;80.25;99504.96;105350;1325;22656;-79
2021/12/12 10:14:51;;;;;;;171.50;62.80;;;;;;;-2.77;80.37;99495.23;105237;1324;22628;-78
2021/12/12 10:17:41;;;;;;;107.40;40.30;;;;;;;-2.81;80.13;99498.64;105379;1325;22658;-78
2021/12/12 10:20:19;;;;;;;74.40;31.00;;;;;;;-2.88;79.82;99496.23;105423;1325;22648;-78
2021/12/12 10:23:12;;;;;;;70.20;30.00;;;;;;;-2.93;79.73;99490.08;105377;1325;22720;-79
2021/12/12 10:25:46;;;;;;;73.90;29.40;;;;;;;-2.96;79.41;99488.55;105378;1324;22596;-78
2021/12/12 10:28:31;;;;;;;90.80;36.20;;;;;;;-2.94;79.49;99487.69;105394;1325;22659;-78
2021/12/12 10:31:35;;;;;;;86.90;35.00;;;;;;;-2.96;80.15;99485.14;105382;1324;22726;-79
2021/12/12 10:34:20;;;;;;;102.20;39.60;;;;;;;-3.00;80.42;99491.08;105555;1320;24237;-78
2021/12/12 10:37:03;;;;;;;102.10;41.40;;;;;;;-3.03;80.15;99488.52;106067;1320;22649;-78
2021/12/12 10:39:44;;;;;;;112.50;44.70;;;;;;;-3.02;79.70;99485.95;106051;1319;24240;-79
2021/12/12 10:42:17;;;;;;;103.60;43.10;;;;;;;-3.04;79.57;99482.21;106081;1314;22571;-78
2021/12/12 10:44:50;;;;;;;104.90;41.00;;;;;;;-3.06;79.27;99480.52;106051;1319;22585;-79
2021/12/12 10:47:30;;;;;;;109.40;46.20;;;;;;;-3.05;79.59;99484.27;106031;1320;24320;-79
2021/12/12 10:50:10;;;;;;;100.00;40.80;;;;;;;-3.05;80.03;99493.11;106015;1314;22607;-78
2021/12/12 10:52:43;;;;;;;114.70;49.00;;;;;;;-3.10;80.32;99494.30;105967;1319;25239;-79
2021/12/12 10:55:17;;;;;;;109.10;46.20;;;;;;;-3.10;80.34;99493.09;106044;1318;22643;-78
2021/12/12 10:58:02;;;;;;;137.40;54.10;;;;;;;-3.12;79.99;99491.05;106016;1319;22590;-78
2021/12/12 11:00:36;;;;;;;120.70;46.50;;;;;;;-3.16;79.85;99486.78;106065;1316;22589;-78
2021/12/12 11:03:09;;;;;;;113.90;44.10;;;;;;;-3.17;79.53;99487.63;106037;1319;22681;-77
2021/12/12 11:05:44;;;;;;;104.50;41.90;;;;;;;-3.15;79.88;99485.42;106091;1316;24308;-78
2021/12/12 11:08:27;;;;;;;107.80;43.20;;;;;;;-3.14;80.19;99485.43;106150;1316;22580;-78
2021/12/12 11:10:58;;;;;;;117.00;47.90;;;;;;;-3.13;80.66;99485.94;106147;1316;22663;-78
2021/12/12 11:13:32;;;;;;;107.10;43.40;;;;;;;-3.13;80.67;99484.58;106160;1316;22575;-79
2021/12/12 11:16:09;;;;;;;107.90;43.00;;;;;;;-3.15;80.48;99484.41;106144;1316;22563;-79
2021/12/12 11:18:47;;;;;;;105.70;43.40;;;;;;;-3.16;80.16;99480.83;106166;1316;22582;-78
2021/12/12 11:21:44;;;;;;;97.90;39.70;;;;;;;-3.18;80.09;99484.55;106186;1316;22524;-78
2021/12/12 11:24:19;;;;;;;95.10;35.10;;;;;;;-3.12;80.01;99483.55;106158;1310;24337;-78
2021/12/12 11:27:24;;;;;;;91.80;37.30;;;;;;;-3.10;80.26;99481.00;106158;1316;22693;-81
2021/12/12 11:30:00;;;;;;;78.50;31.80;;;;;;;-3.07;80.95;99479.31;106150;1316;22562;-79
2021/12/12 11:32:33;;;;;;;76.30;31.30;;;;;;;-3.06;80.99;99480.00;106175;1316;22654;-79
2021/12/12 11:35:03;;;;;;;76.70;32.40;;;;;;;-3.07;80.51;99478.29;106088;1314;22596;-78
2021/12/12 11:38:09;;;;;;;76.50;30.80;;;;;;;-3.09;80.30;99475.21;106052;1319;22588;-78
2021/12/12 11:40:36;;;;;;;92.80;37.90;;;;;;;-3.11;79.86;99475.72;106059;1318;25697;-78
2021/12/12 11:43:12;;;;;;;105.40;40.40;;;;;;;-3.13;79.98;99474.34;106027;1320;22636;-77
2021/12/12 11:45:44;;;;;;;101.00;41.20;;;;;;;-3.09;80.17;99474.35;106026;1316;22574;-77
2021/12/12 11:48:32;;;;;;;93.30;39.20;;;;;;;-3.07;80.57;99475.91;105997;1313;22662;-77
2021/12/12 11:51:21;;;;;;;88.80;35.60;;;;;;;-3.07;81.01;99478.63;106030;1320;25197;-78
2021/12/12 11:53:56;;;;;;;87.50;34.90;;;;;;;-3.09;80.78;99481.86;106041;1318;24499;-78
2021/12/12 11:56:46;;;;;;;79.20;31.80;;;;;;;-3.12;80.49;99480.65;105868;1318;23416;-79
2021/12/12 11:59:30;;;;;;;81.50;32.10;;;;;;;-3.15;80.18;99481.67;105715;1318;22633;-76